createdAt,value
2023-03-23T15:58:53.778Z,31.50
2023-03-23T16:01:23.653Z,34.10
2023-03-23T16:04:03.264Z,43.50
2023-03-23T16:06:33.823Z,36.40
2023-03-23T16:09:03.045Z,45.70
2023-03-23T16:11:33.496Z,34.20
2023-03-23T16:14:02.325Z,39.30
2023-03-23T16:16:50.451Z,43.70
2023-03-23T16:19:25.055Z,40.80
2023-03-23T16:21:56.290Z,41.30
2023-03-23T16:24:27.145Z,46.20
2023-03-23T16:27:01.348Z,44.40
2023-03-23T16:32:01.346Z,51.60
2023-03-23T16:34:35.325Z,49.80
2023-03-23T16:37:07.160Z,48.40
2023-03-23T16:39:37.105Z,47.80
2023-03-23T16:42:09.097Z,47.80
2023-03-23T16:44:44.394Z,48.70
2023-03-23T16:47:13.160Z,59.60
2023-03-23T16:49:42.396Z,54.40
2023-03-23T16:52:10.528Z,47.10
2023-03-23T16:54:38.742Z,66.60
2023-03-23T16:57:09.363Z,46.70
2023-03-23T16:59:42.577Z,46.50
2023-03-23T17:02:11.810Z,47.50
2023-03-23T17:04:44.910Z,53.40
2023-03-23T17:07:15.048Z,52.60
2023-03-23T17:09:43.199Z,51.60
2023-03-23T17:12:13.513Z,50.10
2023-03-23T17:14:45.409Z,49.30
2023-03-23T17:17:18.513Z,41.10
2023-03-23T17:19:53.203Z,32.00
2023-03-23T17:22:20.898Z,32.00
2023-03-23T17:24:54.503Z,26.10
2023-03-23T17:27:25.762Z,28.90
2023-03-23T17:29:58.512Z,22.40
2023-03-23T17:32:27.537Z,23.20
2023-03-23T17:35:02.383Z,20.50
2023-03-23T17:37:32.779Z,23.80
2023-03-23T17:40:01.515Z,24.30
2023-03-23T17:42:34.499Z,23.20
2023-03-23T17:45:07.486Z,25.70
2023-03-23T17:47:39.108Z,30.40
2023-03-23T17:50:13.566Z,34.50
2023-03-23T17:52:49.381Z,32.90
2023-03-23T17:55:19.867Z,25.40
2023-03-23T17:57:53.560Z,28.50
2023-03-23T18:00:25.927Z,26.40
2023-03-23T18:02:56.096Z,25.60
2023-03-23T18:05:28.221Z,23.30
2023-03-23T18:07:56.474Z,21.50
2023-03-23T18:10:25.412Z,23.90
2023-03-23T18:12:54.194Z,22.20
2023-03-23T18:15:28.343Z,21.90
2023-03-23T18:18:03.223Z,24.30
2023-03-23T18:20:33.230Z,22.60
2023-03-23T18:23:04.385Z,19.50
2023-03-23T18:25:33.218Z,21.70
2023-03-23T18:28:05.726Z,21.70
2023-03-23T18:30:37.613Z,21.90
2023-03-23T18:33:10.608Z,22.10
2023-03-23T18:35:45.187Z,22.20
2023-03-23T18:38:25.073Z,24.30
2023-03-23T18:40:59.716Z,23.40
2023-03-23T18:43:27.764Z,24.10
2023-03-23T18:45:59.521Z,23.80
2023-03-23T18:48:33.750Z,23.60
2023-03-23T18:51:03.731Z,26.70
2023-03-23T18:53:37.162Z,23.60
2023-03-23T18:56:39.816Z,23.80
2023-03-23T18:59:12.702Z,24.40
2023-03-23T19:02:05.360Z,27.20
2023-03-23T19:04:41.163Z,23.60
2023-03-23T19:07:15.917Z,24.40
2023-03-23T19:09:48.251Z,26.20
2023-03-23T19:12:23.369Z,27.90
2023-03-23T19:14:57.581Z,23.90
2023-03-23T19:17:25.739Z,25.50
2023-03-23T19:20:45.394Z,26.40
2023-03-23T19:23:17.973Z,24.80
2023-03-23T19:25:48.310Z,25.30
2023-03-23T19:29:23.102Z,23.80
2023-03-23T19:31:34.055Z,24.00
2023-03-23T19:34:08.275Z,25.70
2023-03-23T19:36:39.918Z,23.30
2023-03-23T19:39:13.810Z,23.20
2023-03-23T19:41:46.968Z,25.40
2023-03-23T19:44:19.895Z,27.40
2023-03-23T19:46:49.524Z,25.30
2023-03-23T19:49:20.870Z,23.20
2023-03-23T19:51:49.997Z,22.70
2023-03-23T19:54:19.323Z,21.70
2023-03-23T19:56:48.813Z,21.20
2023-03-23T19:59:19.375Z,20.10
2023-03-23T20:01:48.745Z,25.80
2023-03-23T20:04:18.220Z,19.00
2023-03-23T20:06:47.638Z,18.70
2023-03-23T20:09:19.014Z,21.70
2023-03-23T20:11:50.429Z,19.90
2023-03-23T20:14:25.868Z,24.60
2023-03-23T20:17:00.410Z,22.50
2023-03-23T20:19:29.431Z,22.00
2023-03-23T20:22:00.126Z,18.40
2023-03-23T20:24:31.785Z,22.50
2023-03-23T20:27:05.313Z,21.10
2023-03-23T20:29:35.063Z,21.70
2023-03-23T20:32:02.568Z,19.10
2023-03-23T20:34:30.748Z,17.80
2023-03-23T20:37:02.258Z,22.40
2023-03-23T20:39:37.259Z,19.80
2023-03-23T20:42:07.384Z,18.60
2023-03-23T20:44:39.184Z,22.70
2023-03-23T20:47:09.154Z,21.50
2023-03-23T20:49:38.712Z,22.70
2023-03-23T20:52:19.086Z,20.10
2023-03-23T20:54:50.172Z,18.60
2023-03-23T20:57:20.221Z,19.00
2023-03-23T20:59:55.238Z,16.20
2023-03-23T21:02:25.157Z,20.70
2023-03-23T21:05:03.630Z,19.30
2023-03-23T21:07:33.137Z,17.50
2023-03-23T21:10:03.222Z,15.30
2023-03-23T21:12:35.489Z,17.60
2023-03-23T21:15:04.428Z,18.20
2023-03-23T21:17:32.963Z,16.10
2023-03-23T21:20:10.879Z,19.60
2023-03-23T21:22:42.101Z,17.00
2023-03-23T21:25:09.669Z,19.20
2023-03-23T21:27:41.310Z,18.20
2023-03-23T21:30:10.565Z,15.60
2023-03-23T21:32:37.954Z,17.20
2023-03-23T21:35:08.426Z,17.90
2023-03-23T21:37:36.746Z,16.20
2023-03-23T21:40:13.710Z,22.00
2023-03-23T21:42:45.417Z,17.60
2023-03-23T21:45:18.029Z,17.20
2023-03-23T21:47:48.860Z,18.10
2023-03-23T21:50:21.578Z,16.40
2023-03-23T21:52:51.241Z,16.50
2023-03-23T21:55:29.142Z,20.40
2023-03-23T21:57:59.256Z,18.00
2023-03-23T22:03:03.698Z,16.50
2023-03-23T22:05:31.598Z,16.30
2023-03-23T22:08:06.443Z,18.60
2023-03-23T22:10:33.980Z,17.50
2023-03-23T22:13:01.945Z,15.50
2023-03-23T22:15:30.640Z,17.50
2023-03-23T22:18:00.286Z,15.10
2023-03-23T22:20:30.272Z,18.10
2023-03-23T22:22:59.908Z,17.80
2023-03-23T22:25:28.265Z,18.90
2023-03-23T22:27:59.088Z,17.50
2023-03-23T22:30:29.237Z,14.50
2023-03-23T22:32:59.288Z,17.00
2023-03-23T22:35:27.871Z,18.40
2023-03-23T22:37:55.673Z,21.50
2023-03-23T22:40:25.772Z,16.10
2023-03-23T22:42:56.355Z,17.60
2023-03-23T22:45:26.018Z,16.50
2023-03-23T22:47:53.711Z,16.70
2023-03-23T22:50:25.577Z,16.80
2023-03-23T22:52:53.855Z,16.00
2023-03-23T22:55:27.713Z,16.30
2023-03-23T22:57:57.151Z,17.50
2023-03-23T23:00:25.766Z,18.40
2023-03-23T23:02:53.379Z,16.50
2023-03-23T23:05:20.729Z,19.50
2023-03-23T23:07:51.784Z,17.50
2023-03-23T23:10:21.532Z,16.70
2023-03-23T23:12:49.114Z,14.70
2023-03-23T23:15:23.837Z,16.00
2023-03-23T23:17:56.120Z,14.20
2023-03-23T23:20:24.056Z,16.60
2023-03-23T23:26:34.576Z,15.00
2023-03-23T23:29:03.551Z,15.30
2023-03-23T23:31:36.093Z,14.40
2023-03-23T23:34:06.564Z,12.00
2023-03-23T23:36:37.907Z,16.60
2023-03-23T23:39:06.144Z,15.50
2023-03-23T23:41:39.066Z,15.80
2023-03-23T23:44:07.011Z,14.60
2023-03-23T23:46:37.408Z,18.30
2023-03-23T23:49:06.566Z,14.00
2023-03-23T23:51:38.276Z,15.60
2023-03-23T23:54:22.145Z,16.80
2023-03-23T23:57:01.547Z,14.00
2023-03-23T23:59:38.909Z,14.80
